Terminal Aerodrome Forecast
Issued by NWS Sterling, VA

Home | Current Version | Previous Version | Text Only | Print | Product List | Glossary On
Versions: 1 2 3 4 5 6 7 8 9 10 11 12
000
FTUS41 KLWX 282300 RRA
TAFCHO
TAF
KCHO 282341Z 2900/2924 VRB03KT P6SM OVC100
     FM290300 VRB03KT P6SM -SHRA OVC050
     FM290600 04005KT P6SM OVC020
     FM291100 05004KT 3SM -SHRA OVC020
     FM291500 04006KT P6SM -SHRA OVC035
     FM291700 04005KT P6SM OVC035=

USA.gov is the U.S. government's official web portal to all federal, state and local government web resources and services.